Time,TemperatureF,DewpointF,PressureIn,WindDirection,WindDirectionDegrees,WindSpeedMPH,WindSpeedGustMPH,Humidity,HourlyPrecipIn,Conditions,Clouds,dailyrainin,SoftwareType,DateUTC
2013-03-12 00:51:00,42.9,41.0,30.15,SSE,159,0.0,2.0,94,0.00,,,0.00,weatherlink.com 1.10,2013-03-12 04:51:00,
2013-03-12 01:06:00,42.8,41.0,30.15,SE,141,1.0,1.0,94,0.00,,,0.00,weatherlink.com 1.10,2013-03-12 05:06:00,
2013-03-12 01:21:00,42.6,41.0,30.14,SSE,158,0.0,1.0,95,0.00,,,0.00,weatherlink.com 1.10,2013-03-12 05:21:00,
2013-03-12 01:36:00,42.6,41.0,30.14,SE,141,0.0,2.0,95,0.00,,,0.00,weatherlink.com 1.10,2013-03-12 05:36:00,
2013-03-12 01:51:00,42.5,41.0,30.13,East,89,0.0,1.0,95,0.00,,,0.00,weatherlink.com 1.10,2013-03-12 05:51:00,
2013-03-12 02:21:00,41.4,40.0,30.12,SSW,200,0.0,0.0,95,0.00,,,0.00,weatherlink.com 1.10,2013-03-12 06:21:00,
2013-03-12 02:36:00,41.3,40.0,30.12,SSW,200,0.0,0.0,95,0.00,,,0.00,weatherlink.com 1.10,2013-03-12 06:36:00,
2013-03-12 02:51:00,41.0,40.0,30.11,SSW,200,0.0,0.0,95,0.00,,,0.00,weatherlink.com 1.10,2013-03-12 06:51:00,
2013-03-12 03:06:00,40.9,40.0,30.10,SSW,200,0.0,0.0,96,0.00,,,0.00,weatherlink.com 1.10,2013-03-12 07:06:00,
2013-03-12 03:21:00,41.1,40.0,30.09,SSW,200,0.0,0.0,96,0.00,,,0.00,weatherlink.com 1.10,2013-03-12 07:21:00,
2013-03-12 03:36:00,41.9,41.0,30.08,SE,146,0.0,1.0,97,0.00,,,0.00,weatherlink.com 1.10,2013-03-12 07:36:00,
2013-03-12 03:51:00,42.3,42.0,30.07,SW,221,0.0,0.0,97,0.00,,,0.00,weatherlink.com 1.10,2013-03-12 07:51:00,
2013-03-12 04:06:00,42.3,42.0,30.07,East,96,0.0,1.0,97,0.00,,,0.00,weatherlink.com 1.10,2013-03-12 08:06:00,
2013-03-12 04:21:00,43.1,42.0,30.07,SSW,197,0.0,1.0,97,0.00,,,0.00,weatherlink.com 1.10,2013-03-12 08:21:00,
2013-03-12 04:36:00,44.1,43.0,30.07,WSW,245,0.0,1.0,97,0.00,,,0.00,weatherlink.com 1.10,2013-03-12 08:36:00,
2013-03-12 04:51:00,44.7,44.0,30.06,West,278,0.0,2.0,97,0.00,,,0.00,weatherlink.com 1.10,2013-03-12 08:51:00,
2013-03-12 05:06:00,45.1,44.0,30.05,SSE,152,2.0,3.0,97,0.00,,,0.00,weatherlink.com 1.10,2013-03-12 09:06:00,
2013-03-12 05:21:00,45.4,45.0,30.05,SW,216,0.0,0.0,97,0.00,,,0.00,weatherlink.com 1.10,2013-03-12 09:21:00,
2013-03-12 05:37:00,45.6,45.0,30.06,WNW,286,0.0,0.0,97,0.00,,,0.00,weatherlink.com 1.10,2013-03-12 09:37:00,
2013-03-12 05:51:00,45.1,44.0,30.06,WNW,287,0.0,0.0,97,0.00,,,0.00,weatherlink.com 1.10,2013-03-12 09:51:00,
2013-03-12 06:07:00,45.3,45.0,30.05,WNW,286,0.0,0.0,97,0.00,,,0.00,weatherlink.com 1.10,2013-03-12 10:07:00,
2013-03-12 06:22:00,44.7,44.0,30.06,West,266,0.0,0.0,97,0.00,,,0.00,weatherlink.com 1.10,2013-03-12 10:22:00,
2013-03-12 06:37:00,45.0,44.0,30.05,SSE,153,0.0,0.0,97,0.00,,,0.00,weatherlink.com 1.10,2013-03-12 10:37:00,
2013-03-12 06:52:00,46.0,45.0,30.05,South,174,0.0,4.0,97,0.00,,,0.00,weatherlink.com 1.10,2013-03-12 10:52:00,
2013-03-12 07:07:00,46.0,45.0,30.05,SSE,166,0.0,1.0,97,0.00,,,0.00,weatherlink.com 1.10,2013-03-12 11:07:00,
2013-03-12 07:22:00,46.1,45.0,30.04,SSW,211,1.0,2.0,97,0.00,,,0.00,weatherlink.com 1.10,2013-03-12 11:22:00,
2013-03-12 07:37:00,48.0,48.0,30.03,ESE,119,2.0,6.0,98,0.00,,,0.00,weatherlink.com 1.10,2013-03-12 11:37:00,
2013-03-12 07:52:00,48.2,47.0,30.03,SSE,156,0.0,6.0,97,0.00,,,0.00,weatherlink.com 1.10,2013-03-12 11:52:00,
2013-03-12 08:07:00,48.4,48.0,30.03,East,101,1.0,3.0,97,0.00,,,0.00,weatherlink.com 1.10,2013-03-12 12:07:00,
2013-03-12 08:22:00,48.8,48.0,30.03,SSE,159,0.0,5.0,96,0.00,,,0.00,weatherlink.com 1.10,2013-03-12 12:22:00,
2013-03-12 08:37:00,49.5,48.0,30.03,SW,233,1.0,5.0,96,0.00,,,0.00,weatherlink.com 1.10,2013-03-12 12:37:00,
2013-03-12 08:52:00,50.2,49.0,30.03,SSW,204,0.0,4.0,94,0.00,,,0.00,weatherlink.com 1.10,2013-03-12 12:52:00,
2013-03-12 09:07:00,50.8,49.0,30.04,SW,226,1.0,3.0,93,0.00,,,0.00,weatherlink.com 1.10,2013-03-12 13:07:00,
2013-03-12 09:22:00,51.3,49.0,30.04,West,278,0.0,4.0,92,0.00,,,0.00,weatherlink.com 1.10,2013-03-12 13:22:00,
2013-03-12 09:37:00,51.7,50.0,30.04,SE,131,0.0,6.0,92,0.00,,,0.00,weatherlink.com 1.10,2013-03-12 13:37:00,
2013-03-12 09:52:00,52.0,50.0,30.03,East,93,3.0,7.0,91,0.00,,,0.00,weatherlink.com 1.10,2013-03-12 13:52:00,
2013-03-12 10:07:00,52.5,50.0,30.02,ENE,74,1.0,8.0,91,0.00,,,0.00,weatherlink.com 1.10,2013-03-12 14:07:00,
2013-03-12 10:22:00,53.0,50.0,30.02,SSW,212,2.0,7.0,90,0.00,,,0.00,weatherlink.com 1.10,2013-03-12 14:22:00,
2013-03-12 10:37:00,53.4,51.0,30.01,SE,131,0.0,5.0,90,0.00,,,0.00,weatherlink.com 1.10,2013-03-12 14:37:00,
2013-03-12 10:52:00,53.8,51.0,30.01,SW,236,3.0,6.0,89,0.00,,,0.00,weatherlink.com 1.10,2013-03-12 14:52:00,
2013-03-12 11:07:00,54.1,51.0,30.00,West,273,1.0,10.0,88,0.00,,,0.00,weatherlink.com 1.10,2013-03-12 15:07:00,
2013-03-12 11:22:00,54.5,51.0,30.00,North,8,0.0,5.0,88,0.00,,,0.00,weatherlink.com 1.10,2013-03-12 15:22:00,
2013-03-12 11:37:00,54.7,51.0,29.99,South,174,2.0,6.0,87,0.00,,,0.00,weatherlink.com 1.10,2013-03-12 15:37:00,
2013-03-12 11:52:00,55.3,51.0,29.98,West,278,1.0,8.0,86,0.00,,,0.00,weatherlink.com 1.10,2013-03-12 15:52:00,
2013-03-12 12:07:00,55.5,51.0,29.98,South,172,0.0,10.0,85,0.00,,,0.00,weatherlink.com 1.10,2013-03-12 16:07:00,
2013-03-12 12:22:00,55.9,52.0,29.97,SSW,205,4.0,14.0,85,0.00,,,0.00,weatherlink.com 1.10,2013-03-12 16:22:00,
2013-03-12 12:53:00,57.5,52.0,29.95,South,187,6.0,8.0,83,0.00,,,0.00,weatherlink.com 1.10,2013-03-12 16:53:00,
2013-03-12 13:08:00,58.1,52.0,29.95,South,177,3.0,8.0,81,0.00,,,0.00,weatherlink.com 1.10,2013-03-12 17:08:00,
2013-03-12 13:38:00,57.0,52.0,29.93,SW,232,4.0,7.0,82,0.00,,,0.00,weatherlink.com 1.10,2013-03-12 17:38:00,
2013-03-12 13:53:00,56.5,52.0,29.93,SSE,154,2.0,10.0,84,0.00,,,0.00,weatherlink.com 1.10,2013-03-12 17:53:00,
2013-03-12 14:08:00,56.2,52.0,29.92,SE,142,3.0,7.0,84,0.00,,,0.00,weatherlink.com 1.10,2013-03-12 18:08:00,
2013-03-12 14:23:00,56.3,52.0,29.91,SSE,152,3.0,7.0,84,0.00,,,0.00,weatherlink.com 1.10,2013-03-12 18:23:00,
2013-03-12 14:38:00,56.3,52.0,29.91,SSE,153,1.0,12.0,84,0.00,,,0.00,weatherlink.com 1.10,2013-03-12 18:38:00,
2013-03-12 14:53:00,56.1,51.0,29.89,South,184,1.0,15.0,84,0.00,,,0.00,weatherlink.com 1.10,2013-03-12 18:53:00,
2013-03-12 15:08:00,56.0,52.0,29.89,ESE,111,2.0,7.0,85,0.00,,,0.00,weatherlink.com 1.10,2013-03-12 19:08:00,
2013-03-12 15:38:00,55.7,52.0,29.87,SSE,158,5.0,12.0,86,0.00,,,0.00,weatherlink.com 1.10,2013-03-12 19:38:00,
2013-03-12 15:53:00,55.0,52.0,29.87,SW,228,0.0,10.0,88,0.00,,,0.00,weatherlink.com 1.10,2013-03-12 19:53:00,
2013-03-12 16:08:00,54.2,52.0,29.86,South,179,3.0,10.0,91,0.01,,,0.01,weatherlink.com 1.10,2013-03-12 20:08:00,
2013-03-12 16:23:00,54.1,52.0,29.85,SSW,201,5.0,10.0,93,0.02,,,0.02,weatherlink.com 1.10,2013-03-12 20:23:00,
2013-03-12 16:38:00,54.0,52.0,29.84,SE,132,5.0,7.0,94,0.03,,,0.03,weatherlink.com 1.10,2013-03-12 20:38:00,
2013-03-12 16:53:00,54.0,52.0,29.84,SSW,194,3.0,10.0,94,0.04,,,0.04,weatherlink.com 1.10,2013-03-12 20:53:00,
2013-03-12 17:08:00,54.0,52.0,29.83,South,187,1.0,10.0,94,0.04,,,0.05,weatherlink.com 1.10,2013-03-12 21:08:00,
2013-03-12 17:23:00,54.1,53.0,29.81,SSE,153,4.0,14.0,95,0.05,,,0.07,weatherlink.com 1.10,2013-03-12 21:23:00,
2013-03-12 17:38:00,54.1,53.0,29.81,SW,214,8.0,14.0,95,0.06,,,0.09,weatherlink.com 1.10,2013-03-12 21:38:00,
2013-03-12 17:53:00,54.3,53.0,29.79,SSE,160,4.0,9.0,95,0.08,,,0.12,weatherlink.com 1.10,2013-03-12 21:53:00,
2013-03-12 18:08:00,54.5,53.0,29.79,NE,50,4.0,10.0,95,0.08,,,0.14,weatherlink.com 1.10,2013-03-12 22:08:00,
2013-03-12 18:23:00,54.3,53.0,29.78,SW,219,1.0,10.0,95,0.14,,,0.21,weatherlink.com 1.10,2013-03-12 22:23:00,
2013-03-12 18:38:00,54.2,53.0,29.77,ESE,118,0.0,7.0,95,0.17,,,0.27,weatherlink.com 1.10,2013-03-12 22:38:00,
2013-03-12 18:53:00,54.5,53.0,29.77,West,280,2.0,14.0,95,0.19,,,0.31,weatherlink.com 1.10,2013-03-12 22:53:00,
2013-03-12 19:08:00,54.4,53.0,29.76,West,260,1.0,12.0,95,0.22,,,0.36,weatherlink.com 1.10,2013-03-12 23:08:00,
2013-03-12 19:23:00,54.4,53.0,29.76,East,99,10.0,14.0,95,0.22,,,0.44,weatherlink.com 1.10,2013-03-12 23:23:00,
2013-03-12 19:38:00,54.3,53.0,29.75,East,91,1.0,17.0,96,0.25,,,0.52,weatherlink.com 1.10,2013-03-12 23:38:00,
2013-03-12 19:54:00,54.3,54.0,29.75,WSW,238,2.0,12.0,97,0.36,,,0.67,weatherlink.com 1.10,2013-03-12 23:54:00,
2013-03-12 20:09:00,54.3,54.0,29.74,SE,141,1.0,13.0,97,0.37,,,0.73,weatherlink.com 1.10,2013-03-13 00:09:00,
2013-03-12 20:24:00,54.2,53.0,29.74,SSW,198,4.0,9.0,97,0.37,,,0.81,weatherlink.com 1.10,2013-03-13 00:24:00,
2013-03-12 20:39:00,54.0,53.0,29.75,West,280,1.0,10.0,97,0.32,,,0.85,weatherlink.com 1.10,2013-03-13 00:39:00,
2013-03-12 20:54:00,53.4,53.0,29.75,WSW,252,6.0,10.0,97,0.21,,,0.88,weatherlink.com 1.10,2013-03-13 00:54:00,
2013-03-12 21:09:00,52.4,52.0,29.75,WNW,290,4.0,7.0,97,0.16,,,0.89,weatherlink.com 1.10,2013-03-13 01:09:00,
2013-03-12 21:24:00,52.4,52.0,29.74,SW,215,2.0,7.0,98,0.09,,,0.90,weatherlink.com 1.10,2013-03-13 01:24:00,
2013-03-12 21:39:00,52.2,52.0,29.73,SSE,153,3.0,9.0,98,0.05,,,0.90,weatherlink.com 1.10,2013-03-13 01:39:00,
2013-03-12 21:54:00,51.6,51.0,29.73,SW,214,2.0,7.0,97,0.02,,,0.90,weatherlink.com 1.10,2013-03-13 01:54:00,
2013-03-12 22:09:00,51.3,51.0,29.73,South,191,2.0,5.0,98,0.01,,,0.90,weatherlink.com 1.10,2013-03-13 02:09:00,
2013-03-12 22:24:00,51.3,51.0,29.73,SE,125,2.0,5.0,98,0.00,,,0.90,weatherlink.com 1.10,2013-03-13 02:24:00,
2013-03-12 22:39:00,51.3,51.0,29.73,South,191,3.0,6.0,98,0.00,,,0.90,weatherlink.com 1.10,2013-03-13 02:39:00,
2013-03-12 22:54:00,51.5,51.0,29.73,South,188,1.0,3.0,98,0.00,,,0.90,weatherlink.com 1.10,2013-03-13 02:54:00,
2013-03-12 23:09:00,51.4,51.0,29.73,SSW,196,1.0,3.0,98,0.00,,,0.90,weatherlink.com 1.10,2013-03-13 03:09:00,
2013-03-12 23:24:00,51.4,51.0,29.73,SSW,208,0.0,3.0,98,0.00,,,0.90,weatherlink.com 1.10,2013-03-13 03:24:00,
2013-03-12 23:39:00,51.4,51.0,29.72,South,174,0.0,1.0,98,0.00,,,0.90,weatherlink.com 1.10,2013-03-13 03:39:00,
2013-03-12 23:54:00,51.3,51.0,29.72,South,187,0.0,0.0,98,0.00,,,0.90,weatherlink.com 1.10,2013-03-13 03:54:00,